Terminal Aerodrome Forecast
Issued by NWS Houston/Galveston TX

Home | Current Version | Previous Version | Text Only | Print | Product List | Glossary On
Versions: 1 2 3 4 5 6 7 8 9 10 11 12 13 14 15 16 17 18 19 20 21 22 23 24 25 26 27 28 29 30 31 32 33 34 35 36 37 38 39 40 41 42 43 44 45 46 47 48 49 50
000
FTUS44 KHGX 170421 AAC
TAFHOU
TAF AMD
KHOU 170421Z 1704/1724 31008KT 4SM RA BR SCT008 BKN016 OVC030
     FM170500 03010KT 4SM -SHRA BR BKN006 OVC012
     FM170700 34008KT 2SM BR OVC007
     FM171200 01003KT 2SM BR BKN007 BKN250
     FM171800 12005KT P6SM FEW015 BKN250=

USA.gov is the U.S. government's official web portal to all federal, state and local government web resources and services.